<?xml version='1.0' encoding='utf-8'?>
<gpx xmlns="http://www.topografix.com/GPX/1/1" xmlns:gpxx="http://www.garmin.com/xmlschemas/GpxExtensions/v3" xmlns:xsi="http://www.w3.org/2001/XMLSchema-instance" creator="eTrex 30" version="1.1" xsi:schemaLocation="http://www.topografix.com/GPX/1/1 http://www.topografix.com/GPX/1/1/gpx.xsd http://www.garmin.com/xmlschemas/GpxExtensions/v3 http://www8.garmin.com/xmlschemas/GpxExtensionsv3.xsd http://www.garmin.com/xmlschemas/WaypointExtension/v1 http://www8.garmin.com/xmlschemas/WaypointExtensionv1.xsd http://www.garmin.com/xmlschemas/TrackPointExtension/v1 http://www.garmin.com/xmlschemas/TrackPointExtensionv1.xsd"><metadata><link href="http://www.garmin.com"><text>Garmin International</text></link><time>2015-04-28T15:23:22Z</time></metadata><trk><name>28-APR-15 18:23:18</name><extensions><gpxx:TrackExtension><gpxx:DisplayColor>Cyan</gpxx:DisplayColor></gpxx:TrackExtension></extensions><trkseg><trkpt lat="34.9676394928" lon="32.8275102843"><ele>1107.9</ele><time>2015-04-28T07:44:53Z</time></trkpt><trkpt lat="34.9683010764" lon="32.8280064929"><ele>1105.7</ele><time>2015-04-28T07:47:38Z</time></trkpt><trkpt lat="34.9685431458" lon="32.8278492484"><ele>1108.6</ele><time>2015-04-28T07:47:50Z</time></trkpt><trkpt lat="34.9686851352" lon="32.8269919474"><ele>1110.2</ele><time>2015-04-28T07:48:12Z</time></trkpt><trkpt lat="34.9693120178" lon="32.8268450964"><ele>1098.1</ele><time>2015-04-28T07:48:38Z</time></trkpt><trkpt lat="34.9694658257" lon="32.8261677548"><ele>1101.9</ele><time>2015-04-28T07:48:52Z</time></trkpt><trkpt lat="34.9697299395" lon="32.8259219974"><ele>1093.8</ele><time>2015-04-28T07:49:03Z</time></trkpt><trkpt lat="34.9706765916" lon="32.8263275977"><ele>1081.8</ele><time>2015-04-28T07:49:23Z</time></trkpt><trkpt lat="34.9713102635" lon="32.8257981129"><ele>1083.3</ele><time>2015-04-28T07:51:07Z</time></trkpt><trkpt lat="34.9719328713" lon="32.8260165453"><ele>1073.3</ele><time>2015-04-28T07:51:18Z</time></trkpt><trkpt lat="34.9726039264" lon="32.8256326541"><ele>1071.1</ele><time>2015-04-28T07:51:28Z</time></trkpt><trkpt lat="34.9733364210" lon="32.8257931676"><ele>1061.7</ele><time>2015-04-28T07:51:37Z</time></trkpt><trkpt lat="34.9739042949" lon="32.8252531216"><ele>1061.0</ele><time>2015-04-28T07:51:45Z</time></trkpt><trkpt lat="34.9746289104" lon="32.8254035767"><ele>1050.2</ele><time>2015-04-28T07:51:53Z</time></trkpt><trkpt lat="34.9749807827" lon="32.8243373148"><ele>1052.1</ele><time>2015-04-28T07:52:04Z</time></trkpt><trkpt lat="34.9757921509" lon="32.8235490806"><ele>1037.6</ele><time>2015-04-28T07:52:19Z</time></trkpt><trkpt lat="34.9751948565" lon="32.8246552404"><ele>1035.3</ele><time>2015-04-28T07:52:45Z</time></trkpt><trkpt lat="34.9752285518" lon="32.8257073369"><ele>1024.4</ele><time>2015-04-28T07:52:55Z</time></trkpt><trkpt lat="34.9750920106" lon="32.8260053135"><ele>1018.1</ele><time>2015-04-28T07:52:59Z</time></trkpt><trkpt lat="34.9741855077" lon="32.8260916471"><ele>1016.3</ele><time>2015-04-28T07:53:10Z</time></trkpt><trkpt lat="34.9736032169" lon="32.8271194361"><ele>1002.1</ele><time>2015-04-28T07:53:23Z</time></trkpt><trkpt lat="34.9728973769" lon="32.8269458469"><ele>1001.6</ele><time>2015-04-28T07:53:33Z</time></trkpt><trkpt lat="34.9719849229" lon="32.8274381161"><ele>1003.2</ele><time>2015-04-28T07:53:46Z</time></trkpt><trkpt lat="34.9715420231" lon="32.8285462037"><ele>987.4</ele><time>2015-04-28T07:53:58Z</time></trkpt><trkpt lat="34.9711500015" lon="32.8289234731"><ele>988.5</ele><time>2015-04-28T07:54:04Z</time></trkpt><trkpt lat="34.9708126299" lon="32.8298080154"><ele>989.5</ele><time>2015-04-28T07:54:14Z</time></trkpt><trkpt lat="34.9714274425" lon="32.8307492193"><ele>973.8</ele><time>2015-04-28T07:54:28Z</time></trkpt><trkpt lat="34.9711747281" lon="32.8314500302"><ele>974.1</ele><time>2015-04-28T07:54:37Z</time></trkpt><trkpt lat="34.9714693520" lon="32.8324451298"><ele>965.2</ele><time>2015-04-28T07:54:50Z</time></trkpt><trkpt lat="34.9713024683" lon="32.8315268923"><ele>967.4</ele><time>2015-04-28T07:55:22Z</time></trkpt><trkpt lat="34.9718115851" lon="32.8308435157"><ele>953.7</ele><time>2015-04-28T07:56:22Z</time></trkpt><trkpt lat="34.9715317134" lon="32.8299257811"><ele>952.8</ele><time>2015-04-28T07:56:33Z</time></trkpt><trkpt lat="34.9727865681" lon="32.8288983274"><ele>935.3</ele><time>2015-04-28T07:56:51Z</time></trkpt><trkpt lat="34.9739092402" lon="32.8294029180"><ele>921.5</ele><time>2015-04-28T07:57:06Z</time></trkpt><trkpt lat="34.9743167683" lon="32.8288375586"><ele>921.1</ele><time>2015-04-28T07:57:14Z</time></trkpt><trkpt lat="34.9749124702" lon="32.8288314398"><ele>912.3</ele><time>2015-04-28T07:57:21Z</time></trkpt><trkpt lat="34.9753800966" lon="32.8283166233"><ele>908.7</ele><time>2015-04-28T07:57:29Z</time></trkpt><trkpt lat="34.9762775470" lon="32.8289114032"><ele>896.5</ele><time>2015-04-28T07:57:40Z</time></trkpt><trkpt lat="34.9768206105" lon="32.8285468742"><ele>898.6</ele><time>2015-04-28T07:57:48Z</time></trkpt><trkpt lat="34.9776191544" lon="32.8288314398"><ele>886.4</ele><time>2015-04-28T07:57:58Z</time></trkpt><trkpt lat="34.9778554402" lon="32.8278975282"><ele>890.0</ele><time>2015-04-28T07:58:07Z</time></trkpt><trkpt lat="34.9777774885" lon="32.8269698191"><ele>885.2</ele><time>2015-04-28T07:58:15Z</time></trkpt><trkpt lat="34.9780896306" lon="32.8266108222"><ele>875.2</ele><time>2015-04-28T07:58:21Z</time></trkpt><trkpt lat="34.9791825470" lon="32.8272420634"><ele>862.2</ele><time>2015-04-28T07:58:35Z</time></trkpt><trkpt lat="34.9797713757" lon="32.8272633534"><ele>860.3</ele><time>2015-04-28T07:58:42Z</time></trkpt><trkpt lat="34.9801607151" lon="32.8280031402"><ele>852.9</ele><time>2015-04-28T07:58:51Z</time></trkpt><trkpt lat="34.9810826406" lon="32.8280303814"><ele>842.7</ele><time>2015-04-28T07:59:01Z</time></trkpt><trkpt lat="34.9815322459" lon="32.8283570241"><ele>838.0</ele><time>2015-04-28T07:59:08Z</time></trkpt><trkpt lat="34.9822052289" lon="32.8280219156"><ele>840.2</ele><time>2015-04-28T07:59:17Z</time></trkpt><trkpt lat="34.9823194742" lon="32.8273093700"><ele>837.9</ele><time>2015-04-28T07:59:26Z</time></trkpt><trkpt lat="34.9831657950" lon="32.8269165941"><ele>826.8</ele><time>2015-04-28T07:59:41Z</time></trkpt><trkpt lat="34.9831979815" lon="32.8259359114"><ele>825.9</ele><time>2015-04-28T07:59:54Z</time></trkpt><trkpt lat="34.9837168213" lon="32.8255528584"><ele>818.8</ele><time>2015-04-28T08:00:07Z</time></trkpt><trkpt lat="34.9836245365" lon="32.8250253852"><ele>822.6</ele><time>2015-04-28T08:00:17Z</time></trkpt><trkpt lat="34.9831914436" lon="32.8245106526"><ele>828.2</ele><time>2015-04-28T08:01:48Z</time></trkpt><trkpt lat="34.9832485244" lon="32.8238114342"><ele>816.5</ele><time>2015-04-28T08:02:35Z</time></trkpt><trkpt lat="34.9814613350" lon="32.8227045201"><ele>849.1</ele><time>2015-04-28T08:05:17Z</time></trkpt><trkpt lat="34.9827119987" lon="32.8242631350"><ele>848.8</ele><time>2015-04-28T08:10:54Z</time></trkpt><trkpt lat="34.9814062659" lon="32.8226583358"><ele>850.3</ele><time>2015-04-28T08:16:29Z</time></trkpt><trkpt lat="34.9809319340" lon="32.8217023797"><ele>844.3</ele><time>2015-04-28T08:17:28Z</time></trkpt><trkpt lat="34.9806404114" lon="32.8214338236"><ele>846.6</ele><time>2015-04-28T08:17:53Z</time></trkpt><trkpt lat="34.9800670892" lon="32.8214699496"><ele>852.5</ele><time>2015-04-28T08:18:42Z</time></trkpt><trkpt lat="34.9799524248" lon="32.8202543221"><ele>856.2</ele><time>2015-04-28T08:19:42Z</time></trkpt><trkpt lat="34.9796510115" lon="32.8201332036"><ele>860.4</ele><time>2015-04-28T08:19:57Z</time></trkpt><trkpt lat="34.9795137998" lon="32.8197029606"><ele>865.1</ele><time>2015-04-28T08:20:21Z</time></trkpt><trkpt lat="34.9785265792" lon="32.8182738461"><ele>887.3</ele><time>2015-04-28T08:22:08Z</time></trkpt><trkpt lat="34.9781523272" lon="32.8181704134"><ele>891.7</ele><time>2015-04-28T08:22:35Z</time></trkpt><trkpt lat="34.9774918333" lon="32.8184345271"><ele>904.1</ele><time>2015-04-28T08:23:23Z</time></trkpt><trkpt lat="34.9747742526" lon="32.8176359832"><ele>927.0</ele><time>2015-04-28T08:28:52Z</time></trkpt><trkpt lat="34.9731135461" lon="32.8175724484"><ele>937.3</ele><time>2015-04-28T08:31:06Z</time></trkpt><trkpt lat="34.9730529450" lon="32.8171894792"><ele>934.8</ele><time>2015-04-28T08:31:13Z</time></trkpt><trkpt lat="34.9734991137" lon="32.8167742398"><ele>941.3</ele><time>2015-04-28T08:34:01Z</time></trkpt><trkpt lat="34.9730444793" lon="32.8172091767"><ele>934.7</ele><time>2015-04-28T08:36:59Z</time></trkpt><trkpt lat="34.9731920846" lon="32.8175928164"><ele>936.7</ele><time>2015-04-28T08:37:05Z</time></trkpt><trkpt lat="34.9749568105" lon="32.8176614642"><ele>926.4</ele><time>2015-04-28T08:37:28Z</time></trkpt><trkpt lat="34.9775020592" lon="32.8184104711"><ele>902.9</ele><time>2015-04-28T08:37:54Z</time></trkpt><trkpt lat="34.9781800713" lon="32.8181695752"><ele>891.8</ele><time>2015-04-28T08:38:03Z</time></trkpt><trkpt lat="34.9785547424" lon="32.8183153365"><ele>887.1</ele><time>2015-04-28T08:38:08Z</time></trkpt><trkpt lat="34.9794563837" lon="32.8195965104"><ele>868.8</ele><time>2015-04-28T08:38:24Z</time></trkpt><trkpt lat="34.9796524365" lon="32.8201274201"><ele>860.3</ele><time>2015-04-28T08:38:30Z</time></trkpt><trkpt lat="34.9800615571" lon="32.8203627840"><ele>854.2</ele><time>2015-04-28T08:38:37Z</time></trkpt><trkpt lat="34.9801150337" lon="32.8215504996"><ele>851.9</ele><time>2015-04-28T08:38:53Z</time></trkpt><trkpt lat="34.9806355499" lon="32.8214414511"><ele>847.0</ele><time>2015-04-28T08:39:04Z</time></trkpt><trkpt lat="34.9809637852" lon="32.8217180539"><ele>843.0</ele><time>2015-04-28T08:39:10Z</time></trkpt><trkpt lat="34.9810458440" lon="32.8221850935"><ele>848.6</ele><time>2015-04-28T08:39:24Z</time></trkpt><trkpt lat="34.9813660327" lon="32.8225110658"><ele>846.4</ele><time>2015-04-28T08:41:12Z</time></trkpt><trkpt lat="34.9826102424" lon="32.8234931733"><ele>824.5</ele><time>2015-04-28T08:41:41Z</time></trkpt><trkpt lat="34.9832805432" lon="32.8237877972"><ele>814.7</ele><time>2015-04-28T08:42:01Z</time></trkpt><trkpt lat="34.9832513742" lon="32.8245329484"><ele>825.4</ele><time>2015-04-28T08:43:00Z</time></trkpt><trkpt lat="34.9833406415" lon="32.8237983584"><ele>811.9</ele><time>2015-04-28T08:43:18Z</time></trkpt><trkpt lat="34.9826649763" lon="32.8228846472"><ele>802.6</ele><time>2015-04-28T08:43:43Z</time></trkpt><trkpt lat="34.9826752860" lon="32.8225584235"><ele>796.8</ele><time>2015-04-28T08:43:54Z</time></trkpt><trkpt lat="34.9829287548" lon="32.8224238101"><ele>790.3</ele><time>2015-04-28T08:44:06Z</time></trkpt><trkpt lat="34.9837130494" lon="32.8226423264"><ele>786.2</ele><time>2015-04-28T08:44:33Z</time></trkpt><trkpt lat="34.9845972564" lon="32.8232125472"><ele>781.5</ele><time>2015-04-28T08:44:57Z</time></trkpt><trkpt lat="34.9850384798" lon="32.8230016585"><ele>783.7</ele><time>2015-04-28T08:45:10Z</time></trkpt><trkpt lat="34.9859005585" lon="32.8241614625"><ele>771.4</ele><time>2015-04-28T08:45:34Z</time></trkpt><trkpt lat="34.9859795161" lon="32.8245266620"><ele>767.8</ele><time>2015-04-28T08:46:43Z</time></trkpt><trkpt lat="34.9861339945" lon="32.8245620336"><ele>773.5</ele><time>2015-04-28T08:50:52Z</time></trkpt><trkpt lat="34.9860227667" lon="32.8246103972"><ele>767.3</ele><time>2015-04-28T09:09:40Z</time></trkpt><trkpt lat="34.9861008860" lon="32.8244508058"><ele>774.6</ele><time>2015-04-28T09:22:04Z</time></trkpt><trkpt lat="34.9863664247" lon="32.8248491138"><ele>769.6</ele><time>2015-04-28T09:22:32Z</time></trkpt><trkpt lat="34.9877003208" lon="32.8244648036"><ele>765.7</ele><time>2015-04-28T09:23:01Z</time></trkpt><trkpt lat="34.9883732200" lon="32.8252214380"><ele>756.4</ele><time>2015-04-28T09:23:16Z</time></trkpt><trkpt lat="34.9883550312" lon="32.8269424103"><ele>745.7</ele><time>2015-04-28T09:23:51Z</time></trkpt><trkpt lat="34.9890330434" lon="32.8274905030"><ele>740.7</ele><time>2015-04-28T09:24:15Z</time></trkpt><trkpt lat="34.9893170223" lon="32.8275298979"><ele>742.6</ele><time>2015-04-28T09:24:21Z</time></trkpt><trkpt lat="34.9896637816" lon="32.8273034189"><ele>743.4</ele><time>2015-04-28T09:25:33Z</time></trkpt><trkpt lat="34.9898343533" lon="32.8267145064"><ele>746.7</ele><time>2015-04-28T09:27:23Z</time></trkpt><trkpt lat="34.9904642534" lon="32.8264580201"><ele>736.2</ele><time>2015-04-28T09:28:22Z</time></trkpt><trkpt lat="34.9905349128" lon="32.8275697120"><ele>720.4</ele><time>2015-04-28T09:28:49Z</time></trkpt><trkpt lat="34.9919617642" lon="32.8284996841"><ele>714.6</ele><time>2015-04-28T09:30:59Z</time></trkpt><trkpt lat="34.9925022293" lon="32.8283466306"><ele>716.1</ele><time>2015-04-28T09:31:39Z</time></trkpt><trkpt lat="34.9921386223" lon="32.8285268415"><ele>712.7</ele><time>2015-04-28T09:32:00Z</time></trkpt><trkpt lat="34.9913090654" lon="32.8282360733"><ele>714.3</ele><time>2015-04-28T09:32:52Z</time></trkpt><trkpt lat="34.9915475305" lon="32.8284084890"><ele>710.9</ele><time>2015-04-28T09:33:13Z</time></trkpt><trkpt lat="34.9913682416" lon="32.8283798229"><ele>709.9</ele><time>2015-04-28T09:33:27Z</time></trkpt><trkpt lat="34.9913418386" lon="32.8286254965"><ele>702.1</ele><time>2015-04-28T09:33:49Z</time></trkpt><trkpt lat="34.9916713312" lon="32.8293408919"><ele>685.1</ele><time>2015-04-28T09:35:52Z</time></trkpt><trkpt lat="34.9921956193" lon="32.8290694859"><ele>679.8</ele><time>2015-04-28T09:38:31Z</time></trkpt><trkpt lat="34.9924735632" lon="32.8292553965"><ele>667.0</ele><time>2015-04-28T09:38:43Z</time></trkpt><trkpt lat="34.9923557136" lon="32.8298339155"><ele>669.2</ele><time>2015-04-28T09:43:05Z</time></trkpt><trkpt lat="34.9918649532" lon="32.8302434552"><ele>670.4</ele><time>2015-04-28T09:43:30Z</time></trkpt><trkpt lat="34.9911144376" lon="32.8302059043"><ele>674.6</ele><time>2015-04-28T09:45:33Z</time></trkpt><trkpt lat="34.9916731752" lon="32.8303240892"><ele>674.6</ele><time>2015-04-28T09:59:09Z</time></trkpt><trkpt lat="34.9922426417" lon="32.8299822751"><ele>670.8</ele><time>2015-04-28T10:00:02Z</time></trkpt><trkpt lat="34.9930527527" lon="32.8304542601"><ele>672.2</ele><time>2015-04-28T10:01:14Z</time></trkpt><trkpt lat="34.9927575421" lon="32.8303204011"><ele>678.4</ele><time>2015-04-28T10:01:37Z</time></trkpt><trkpt lat="34.9928383436" lon="32.8306236584"><ele>680.3</ele><time>2015-04-28T10:01:59Z</time></trkpt><trkpt lat="34.9925457314" lon="32.8311933763"><ele>692.9</ele><time>2015-04-28T10:02:48Z</time></trkpt><trkpt lat="34.9923574738" lon="32.8320662677"><ele>702.6</ele><time>2015-04-28T10:03:55Z</time></trkpt><trkpt lat="34.9927183148" lon="32.8332203720"><ele>692.9</ele><time>2015-04-28T10:05:21Z</time></trkpt><trkpt lat="34.9924069270" lon="32.8326142766"><ele>706.8</ele><time>2015-04-28T10:06:09Z</time></trkpt><trkpt lat="34.9923808593" lon="32.8321334906"><ele>702.0</ele><time>2015-04-28T10:06:59Z</time></trkpt><trkpt lat="34.9926997069" lon="32.8308923822"><ele>687.4</ele><time>2015-04-28T10:07:16Z</time></trkpt><trkpt lat="34.9926145468" lon="32.8322169743"><ele>691.0</ele><time>2015-04-28T10:08:03Z</time></trkpt><trkpt lat="34.9930390902" lon="32.8329705913"><ele>687.3</ele><time>2015-04-28T10:08:29Z</time></trkpt><trkpt lat="34.9934308603" lon="32.8331414983"><ele>677.2</ele><time>2015-04-28T10:08:37Z</time></trkpt><trkpt lat="34.9934907071" lon="32.8329345491"><ele>674.7</ele><time>2015-04-28T10:08:41Z</time></trkpt><trkpt lat="34.9932633061" lon="32.8325685114"><ele>673.7</ele><time>2015-04-28T10:08:53Z</time></trkpt><trkpt lat="34.9932376575" lon="32.8321003821"><ele>672.0</ele><time>2015-04-28T10:09:05Z</time></trkpt><trkpt lat="34.9932840094" lon="32.8316676244"><ele>670.5</ele><time>2015-04-28T10:09:18Z</time></trkpt><trkpt lat="34.9934683274" lon="32.8314299136"><ele>675.0</ele><time>2015-04-28T10:09:34Z</time></trkpt><trkpt lat="34.9941247143" lon="32.8310274146"><ele>672.1</ele><time>2015-04-28T10:09:59Z</time></trkpt><trkpt lat="34.9946371000" lon="32.8311668895"><ele>678.7</ele><time>2015-04-28T10:10:17Z</time></trkpt><trkpt lat="34.9948091805" lon="32.8305039648"><ele>655.7</ele><time>2015-04-28T10:10:29Z</time></trkpt><trkpt lat="34.9953586981" lon="32.8299179021"><ele>653.7</ele><time>2015-04-28T10:10:39Z</time></trkpt><trkpt lat="34.9969110265" lon="32.8291415703"><ele>645.6</ele><time>2015-04-28T10:11:00Z</time></trkpt><trkpt lat="34.9979268294" lon="32.8292944562"><ele>650.4</ele><time>2015-04-28T10:11:25Z</time></trkpt><trkpt lat="34.9979407433" lon="32.8295327537"><ele>661.8</ele><time>2015-04-28T10:15:25Z</time></trkpt><trkpt lat="34.9986569770" lon="32.8305025399"><ele>657.8</ele><time>2015-04-28T10:16:58Z</time></trkpt><trkpt lat="34.9989611562" lon="32.8301633243"><ele>648.5</ele><time>2015-04-28T10:17:17Z</time></trkpt><trkpt lat="34.9987970386" lon="32.8294836357"><ele>638.1</ele><time>2015-04-28T10:17:49Z</time></trkpt><trkpt lat="34.9992298800" lon="32.8291781154"><ele>646.9</ele><time>2015-04-28T10:18:00Z</time></trkpt><trkpt lat="34.9997599516" lon="32.8291740920"><ele>648.4</ele><time>2015-04-28T10:18:44Z</time></trkpt><trkpt lat="34.9998493027" lon="32.8298760764"><ele>651.0</ele><time>2015-04-28T10:19:14Z</time></trkpt><trkpt lat="35.0002925377" lon="32.8302491549"><ele>638.8</ele><time>2015-04-28T10:19:27Z</time></trkpt><trkpt lat="35.0002670567" lon="32.8295913432"><ele>627.4</ele><time>2015-04-28T10:19:43Z</time></trkpt><trkpt lat="35.0007243734" lon="32.8274200950"><ele>600.3</ele><time>2015-04-28T10:20:11Z</time></trkpt><trkpt lat="35.0018513203" lon="32.8264023643"><ele>601.2</ele><time>2015-04-28T10:20:31Z</time></trkpt><trkpt lat="35.0023607723" lon="32.8264792264"><ele>593.7</ele><time>2015-04-28T10:20:43Z</time></trkpt><trkpt lat="35.0038535055" lon="32.8272086196"><ele>592.1</ele><time>2015-04-28T10:21:21Z</time></trkpt><trkpt lat="35.0048329309" lon="32.8267561644"><ele>596.3</ele><time>2015-04-28T10:21:52Z</time></trkpt><trkpt lat="35.0059509091" lon="32.8266237304"><ele>591.6</ele><time>2015-04-28T10:22:29Z</time></trkpt><trkpt lat="35.0080815889" lon="32.8258785792"><ele>571.5</ele><time>2015-04-28T10:23:05Z</time></trkpt><trkpt lat="35.0133115612" lon="32.8263131808"><ele>530.1</ele><time>2015-04-28T10:23:47Z</time></trkpt><trkpt lat="35.0141094346" lon="32.8260982689"><ele>516.7</ele><time>2015-04-28T10:23:54Z</time></trkpt><trkpt lat="35.0155698974" lon="32.8252940252"><ele>505.6</ele><time>2015-04-28T10:24:08Z</time></trkpt><trkpt lat="35.0161407050" lon="32.8252120502"><ele>501.5</ele><time>2015-04-28T10:24:14Z</time></trkpt><trkpt lat="35.0191431027" lon="32.8257436305"><ele>500.7</ele><time>2015-04-28T10:27:54Z</time></trkpt><trkpt lat="35.0212402549" lon="32.8257458936"><ele>524.5</ele><time>2015-04-28T10:30:49Z</time></trkpt><trkpt lat="35.0219869986" lon="32.8253216855"><ele>540.9</ele><time>2015-04-28T10:31:51Z</time></trkpt><trkpt lat="35.0218407344" lon="32.8239885438"><ele>568.1</ele><time>2015-04-28T10:33:22Z</time></trkpt><trkpt lat="35.0222340133" lon="32.8242394142"><ele>551.8</ele><time>2015-04-28T10:34:04Z</time></trkpt><trkpt lat="35.0228783302" lon="32.8242198844"><ele>563.1</ele><time>2015-04-28T10:34:57Z</time></trkpt><trkpt lat="35.0229625683" lon="32.8245879337"><ele>558.6</ele><time>2015-04-28T10:35:22Z</time></trkpt><trkpt lat="35.0231602136" lon="32.8246549889"><ele>566.8</ele><time>2015-04-28T10:35:35Z</time></trkpt><trkpt lat="35.0237014331" lon="32.8244908713"><ele>576.4</ele><time>2015-04-28T10:36:13Z</time></trkpt><trkpt lat="35.0245113764" lon="32.8238640726"><ele>581.7</ele><time>2015-04-28T10:36:59Z</time></trkpt><trkpt lat="35.0249125343" lon="32.8240405954"><ele>571.6</ele><time>2015-04-28T10:37:10Z</time></trkpt><trkpt lat="35.0252535939" lon="32.8235437162"><ele>580.1</ele><time>2015-04-28T10:37:22Z</time></trkpt><trkpt lat="35.0264257193" lon="32.8227955475"><ele>580.5</ele><time>2015-04-28T10:38:06Z</time></trkpt><trkpt lat="35.0267876498" lon="32.8218954988"><ele>595.0</ele><time>2015-04-28T10:39:08Z</time></trkpt><trkpt lat="35.0266347639" lon="32.8213304747"><ele>608.5</ele><time>2015-04-28T10:39:44Z</time></trkpt><trkpt lat="35.0264993962" lon="32.8216160461"><ele>614.1</ele><time>2015-04-28T10:42:45Z</time></trkpt><trkpt lat="35.0266060978" lon="32.8215978574"><ele>609.5</ele><time>2015-04-28T10:56:20Z</time></trkpt><trkpt lat="35.0265832152" lon="32.8218504041"><ele>604.5</ele><time>2015-04-28T10:58:00Z</time></trkpt><trkpt lat="35.0262134895" lon="32.8220824990"><ele>608.9</ele><time>2015-04-28T10:58:49Z</time></trkpt><trkpt lat="35.0261252280" lon="32.8220539168"><ele>611.8</ele><time>2015-04-28T10:59:02Z</time></trkpt><trkpt lat="35.0263435766" lon="32.8215959296"><ele>619.6</ele><time>2015-04-28T10:59:54Z</time></trkpt><trkpt lat="35.0252240896" lon="32.8221270908"><ele>627.3</ele><time>2015-04-28T11:01:59Z</time></trkpt><trkpt lat="35.0247028191" lon="32.8221374843"><ele>639.5</ele><time>2015-04-28T11:02:46Z</time></trkpt><trkpt lat="35.0245775096" lon="32.8224759456"><ele>634.3</ele><time>2015-04-28T11:03:01Z</time></trkpt><trkpt lat="35.0236206315" lon="32.8229741659"><ele>628.3</ele><time>2015-04-28T11:03:58Z</time></trkpt><trkpt lat="35.0224184990" lon="32.8227404784"><ele>625.6</ele><time>2015-04-28T11:05:02Z</time></trkpt><trkpt lat="35.0216155965" lon="32.8217023797"><ele>641.6</ele><time>2015-04-28T11:05:39Z</time></trkpt><trkpt lat="35.0209797453" lon="32.8227056935"><ele>635.2</ele><time>2015-04-28T11:06:09Z</time></trkpt><trkpt lat="35.0205170643" lon="32.8237903118"><ele>620.8</ele><time>2015-04-28T11:06:32Z</time></trkpt><trkpt lat="35.0202813651" lon="32.8238338139"><ele>616.8</ele><time>2015-04-28T11:06:43Z</time></trkpt><trkpt lat="35.0192446075" lon="32.8234620765"><ele>612.0</ele><time>2015-04-28T11:11:14Z</time></trkpt><trkpt lat="35.0179488491" lon="32.8224942181"><ele>615.6</ele><time>2015-04-28T11:12:18Z</time></trkpt><trkpt lat="35.0175232999" lon="32.8205113951"><ele>642.8</ele><time>2015-04-28T11:14:39Z</time></trkpt><trkpt lat="35.0170624629" lon="32.8211253695"><ele>632.4</ele><time>2015-04-28T11:15:04Z</time></trkpt><trkpt lat="35.0160938501" lon="32.8218390886"><ele>631.1</ele><time>2015-04-28T11:15:39Z</time></trkpt><trkpt lat="35.0157698058" lon="32.8217410203"><ele>631.3</ele><time>2015-04-28T11:16:05Z</time></trkpt><trkpt lat="35.0151549932" lon="32.8206840623"><ele>651.2</ele><time>2015-04-28T11:17:18Z</time></trkpt><trkpt lat="35.0147224031" lon="32.8210166562"><ele>660.6</ele><time>2015-04-28T11:17:43Z</time></trkpt><trkpt lat="35.0147861056" lon="32.8214733023"><ele>645.4</ele><time>2015-04-28T11:18:03Z</time></trkpt><trkpt lat="35.0144142006" lon="32.8215241805"><ele>651.6</ele><time>2015-04-28T11:19:52Z</time></trkpt><trkpt lat="35.0144464709" lon="32.8213363420"><ele>661.4</ele><time>2015-04-28T11:45:32Z</time></trkpt><trkpt lat="35.0137725659" lon="32.8221864346"><ele>641.7</ele><time>2015-04-28T11:49:04Z</time></trkpt><trkpt lat="35.0135163311" lon="32.8221982531"><ele>638.0</ele><time>2015-04-28T11:49:18Z</time></trkpt><trkpt lat="35.0130196195" lon="32.8215284552"><ele>647.4</ele><time>2015-04-28T11:50:08Z</time></trkpt><trkpt lat="35.0126088224" lon="32.8213132080"><ele>644.8</ele><time>2015-04-28T11:50:40Z</time></trkpt><trkpt lat="35.0124675035" lon="32.8208031692"><ele>663.3</ele><time>2015-04-28T11:51:11Z</time></trkpt><trkpt lat="35.0115892477" lon="32.8212244436"><ele>657.6</ele><time>2015-04-28T11:52:53Z</time></trkpt><trkpt lat="35.0113339350" lon="32.8211015649"><ele>655.4</ele><time>2015-04-28T11:53:11Z</time></trkpt><trkpt lat="35.0113053527" lon="32.8207389638"><ele>664.0</ele><time>2015-04-28T11:54:51Z</time></trkpt><trkpt lat="35.0111433305" lon="32.8205972258"><ele>669.6</ele><time>2015-04-28T11:55:07Z</time></trkpt><trkpt lat="35.0104824174" lon="32.8206813801"><ele>664.8</ele><time>2015-04-28T11:55:43Z</time></trkpt><trkpt lat="35.0103933178" lon="32.8198854346"><ele>670.7</ele><time>2015-04-28T11:56:15Z</time></trkpt><trkpt lat="35.0116490107" lon="32.8188853897"><ele>686.6</ele><time>2015-04-28T11:57:37Z</time></trkpt><trkpt lat="35.0115574803" lon="32.8182748519"><ele>675.3</ele><time>2015-04-28T11:58:30Z</time></trkpt><trkpt lat="35.0117247831" lon="32.8177944012"><ele>681.1</ele><time>2015-04-28T11:58:39Z</time></trkpt><trkpt lat="35.0114955381" lon="32.8175203130"><ele>682.5</ele><time>2015-04-28T11:58:50Z</time></trkpt><trkpt lat="35.0109758601" lon="32.8179731872"><ele>675.1</ele><time>2015-04-28T11:59:14Z</time></trkpt><trkpt lat="35.0105969980" lon="32.8177135997"><ele>671.2</ele><time>2015-04-28T11:59:25Z</time></trkpt><trkpt lat="35.0103589520" lon="32.8170945961"><ele>681.1</ele><time>2015-04-28T12:03:50Z</time></trkpt><trkpt lat="35.0093381200" lon="32.8179589380"><ele>670.1</ele><time>2015-04-28T12:05:15Z</time></trkpt><trkpt lat="35.0089266524" lon="32.8180499654"><ele>656.2</ele><time>2015-04-28T12:05:25Z</time></trkpt><trkpt lat="35.0084906258" lon="32.8174539283"><ele>648.4</ele><time>2015-04-28T12:05:36Z</time></trkpt><trkpt lat="35.0084803160" lon="32.8168153949"><ele>655.5</ele><time>2015-04-28T12:05:45Z</time></trkpt><trkpt lat="35.0079287868" lon="32.8166252933"><ele>643.3</ele><time>2015-04-28T12:05:56Z</time></trkpt><trkpt lat="35.0072353519" lon="32.8150203265"><ele>649.4</ele><time>2015-04-28T12:06:35Z</time></trkpt><trkpt lat="35.0070488546" lon="32.8156919684"><ele>656.6</ele><time>2015-04-28T12:07:25Z</time></trkpt><trkpt lat="35.0070320908" lon="32.8170173150"><ele>663.0</ele><time>2015-04-28T12:08:11Z</time></trkpt><trkpt lat="35.0073708035" lon="32.8192365915"><ele>658.9</ele><time>2015-04-28T12:09:23Z</time></trkpt><trkpt lat="35.0068540592" lon="32.8199605364"><ele>667.4</ele><time>2015-04-28T12:09:50Z</time></trkpt><trkpt lat="35.0075588096" lon="32.8203486186"><ele>650.8</ele><time>2015-04-28T12:10:13Z</time></trkpt><trkpt lat="35.0072701368" lon="32.8207653668"><ele>659.4</ele><time>2015-04-28T12:10:28Z</time></trkpt><trkpt lat="35.0073498487" lon="32.8220197186"><ele>651.9</ele><time>2015-04-28T12:11:00Z</time></trkpt><trkpt lat="35.0071967114" lon="32.8222679067"><ele>645.0</ele><time>2015-04-28T12:11:07Z</time></trkpt><trkpt lat="35.0061624683" lon="32.8226721659"><ele>651.1</ele><time>2015-04-28T12:11:42Z</time></trkpt><trkpt lat="35.0055690296" lon="32.8231697995"><ele>652.0</ele><time>2015-04-28T12:12:06Z</time></trkpt><trkpt lat="35.0054272078" lon="32.8236867115"><ele>639.8</ele><time>2015-04-28T12:12:22Z</time></trkpt><trkpt lat="35.0048181787" lon="32.8236997873"><ele>634.5</ele><time>2015-04-28T12:12:37Z</time></trkpt><trkpt lat="35.0045269076" lon="32.8235221747"><ele>640.5</ele><time>2015-04-28T12:12:45Z</time></trkpt><trkpt lat="35.0040428527" lon="32.8238636535"><ele>646.1</ele><time>2015-04-28T12:12:56Z</time></trkpt><trkpt lat="35.0037288666" lon="32.8243993409"><ele>639.1</ele><time>2015-04-28T12:13:11Z</time></trkpt><trkpt lat="35.0033566263" lon="32.8244377300"><ele>633.2</ele><time>2015-04-28T12:13:24Z</time></trkpt><trkpt lat="35.0028060190" lon="32.8240542579"><ele>629.3</ele><time>2015-04-28T12:13:44Z</time></trkpt><trkpt lat="35.0017275196" lon="32.8222757857"><ele>619.2</ele><time>2015-04-28T12:14:40Z</time></trkpt><trkpt lat="35.0014223345" lon="32.8220985923"><ele>629.2</ele><time>2015-04-28T12:14:49Z</time></trkpt><trkpt lat="35.0011749845" lon="32.8231027443"><ele>634.1</ele><time>2015-04-28T12:16:07Z</time></trkpt><trkpt lat="35.0007761735" lon="32.8232860565"><ele>644.4</ele><time>2015-04-28T12:16:51Z</time></trkpt><trkpt lat="35.0010017306" lon="32.8237204906"><ele>645.8</ele><time>2015-04-28T12:17:27Z</time></trkpt><trkpt lat="35.0008809473" lon="32.8240757156"><ele>646.0</ele><time>2015-04-28T12:17:53Z</time></trkpt><trkpt lat="35.0004238822" lon="32.8242655657"><ele>652.2</ele><time>2015-04-28T12:18:24Z</time></trkpt><trkpt lat="34.9997759610" lon="32.8250041790"><ele>648.7</ele><time>2015-04-28T12:19:20Z</time></trkpt><trkpt lat="34.9986921810" lon="32.8251403011"><ele>663.9</ele><time>2015-04-28T12:20:19Z</time></trkpt><trkpt lat="34.9984472618" lon="32.8256680258"><ele>661.5</ele><time>2015-04-28T12:20:59Z</time></trkpt><trkpt lat="34.9980670586" lon="32.8258097637"><ele>673.0</ele><time>2015-04-28T12:24:19Z</time></trkpt><trkpt lat="34.9977204669" lon="32.8263169527"><ele>664.9</ele><time>2015-04-28T12:25:28Z</time></trkpt><trkpt lat="34.9971444625" lon="32.8260120191"><ele>685.8</ele><time>2015-04-28T12:26:17Z</time></trkpt><trkpt lat="34.9970345758" lon="32.8266061284"><ele>682.0</ele><time>2015-04-28T12:27:08Z</time></trkpt><trkpt lat="34.9967764132" lon="32.8267880157"><ele>677.9</ele><time>2015-04-28T12:28:55Z</time></trkpt><trkpt lat="34.9964130577" lon="32.8265668172"><ele>689.7</ele><time>2015-04-28T12:29:31Z</time></trkpt><trkpt lat="34.9957602751" lon="32.8270904347"><ele>692.2</ele><time>2015-04-28T12:30:39Z</time></trkpt><trkpt lat="34.9953139387" lon="32.8269423265"><ele>698.7</ele><time>2015-04-28T12:31:24Z</time></trkpt><trkpt lat="34.9950548541" lon="32.8270300850"><ele>703.3</ele><time>2015-04-28T12:31:45Z</time></trkpt><trkpt lat="34.9939115625" lon="32.8282607999"><ele>706.8</ele><time>2015-04-28T12:33:53Z</time></trkpt><trkpt lat="34.9932587799" lon="32.8279044852"><ele>711.8</ele><time>2015-04-28T12:34:36Z</time></trkpt><trkpt lat="34.9919730797" lon="32.8285334632"><ele>713.1</ele><time>2015-04-28T12:36:21Z</time></trkpt><trkpt lat="34.9905222561" lon="32.8275445662"><ele>720.4</ele><time>2015-04-28T12:38:28Z</time></trkpt><trkpt lat="34.9904688634" lon="32.8263721056"><ele>738.0</ele><time>2015-04-28T12:39:48Z</time></trkpt><trkpt lat="34.9906586297" lon="32.8260249272"><ele>745.6</ele><time>2015-04-28T12:49:00Z</time></trkpt><trkpt lat="34.9910839275" lon="32.8256131243"><ele>753.8</ele><time>2015-04-28T12:54:06Z</time></trkpt><trkpt lat="34.9912863504" lon="32.8257853724"><ele>756.4</ele><time>2015-04-28T12:54:40Z</time></trkpt><trkpt lat="34.9912672397" lon="32.8263900429"><ele>758.3</ele><time>2015-04-28T12:55:20Z</time></trkpt><trkpt lat="34.9913469516" lon="32.8262892924"><ele>760.7</ele><time>2015-04-28T12:55:34Z</time></trkpt><trkpt lat="34.9915231392" lon="32.8256119508"><ele>764.9</ele><time>2015-04-28T12:56:31Z</time></trkpt><trkpt lat="34.9915226363" lon="32.8250662051"><ele>769.7</ele><time>2015-04-28T12:57:12Z</time></trkpt><trkpt lat="34.9913757853" lon="32.8248274885"><ele>771.1</ele><time>2015-04-28T12:57:32Z</time></trkpt><trkpt lat="34.9910407607" lon="32.8246689029"><ele>780.5</ele><time>2015-04-28T12:57:50Z</time></trkpt><trkpt lat="34.9904873874" lon="32.8252749145"><ele>779.2</ele><time>2015-04-28T12:58:30Z</time></trkpt><trkpt lat="34.9899376184" lon="32.8255045786"><ele>786.8</ele><time>2015-04-28T12:59:01Z</time></trkpt><trkpt lat="34.9896933697" lon="32.8257909045"><ele>783.9</ele><time>2015-04-28T12:59:21Z</time></trkpt><trkpt lat="34.9891560059" lon="32.8258883022"><ele>784.6</ele><time>2015-04-28T12:59:46Z</time></trkpt><trkpt lat="34.9887877889" lon="32.8253294807"><ele>783.4</ele><time>2015-04-28T13:00:28Z</time></trkpt><trkpt lat="34.9888901319" lon="32.8249470145"><ele>791.6</ele><time>2015-04-28T13:00:55Z</time></trkpt><trkpt lat="34.9883728847" lon="32.8233322408"><ele>803.7</ele><time>2015-04-28T13:02:10Z</time></trkpt><trkpt lat="34.9871181138" lon="32.8233611584"><ele>817.3</ele><time>2015-04-28T13:03:39Z</time></trkpt><trkpt lat="34.9863820150" lon="32.8236710373"><ele>809.7</ele><time>2015-04-28T13:04:33Z</time></trkpt><trkpt lat="34.9862679373" lon="32.8232628386"><ele>823.2</ele><time>2015-04-28T13:14:17Z</time></trkpt><trkpt lat="34.9862268660" lon="32.8233956918"><ele>814.4</ele><time>2015-04-28T13:24:12Z</time></trkpt><trkpt lat="34.9860205874" lon="32.8232235275"><ele>815.0</ele><time>2015-04-28T13:25:12Z</time></trkpt><trkpt lat="34.9852698203" lon="32.8220728599"><ele>818.2</ele><time>2015-04-28T13:26:02Z</time></trkpt><trkpt lat="34.9847013596" lon="32.8222301882"><ele>813.3</ele><time>2015-04-28T13:26:33Z</time></trkpt><trkpt lat="34.9836340081" lon="32.8216986079"><ele>825.0</ele><time>2015-04-28T13:27:57Z</time></trkpt><trkpt lat="34.9833139870" lon="32.8219509032"><ele>813.9</ele><time>2015-04-28T13:28:11Z</time></trkpt><trkpt lat="34.9822812527" lon="32.8220710158"><ele>806.6</ele><time>2015-04-28T13:29:01Z</time></trkpt><trkpt lat="34.9814763386" lon="32.8211853839"><ele>811.6</ele><time>2015-04-28T13:29:41Z</time></trkpt><trkpt lat="34.9810752645" lon="32.8219697624"><ele>840.8</ele><time>2015-04-28T13:32:46Z</time></trkpt><trkpt lat="34.9809949659" lon="32.8216662537"><ele>840.2</ele><time>2015-04-28T13:33:05Z</time></trkpt><trkpt lat="34.9806486256" lon="32.8214227594"><ele>846.1</ele><time>2015-04-28T13:33:34Z</time></trkpt><trkpt lat="34.9801610503" lon="32.8215738852"><ele>852.1</ele><time>2015-04-28T13:34:20Z</time></trkpt><trkpt lat="34.9800245930" lon="32.8202948067"><ele>854.6</ele><time>2015-04-28T13:35:42Z</time></trkpt><trkpt lat="34.9796219263" lon="32.8201041184"><ele>860.8</ele><time>2015-04-28T13:36:12Z</time></trkpt><trkpt lat="34.9794159830" lon="32.8195089195"><ele>869.4</ele><time>2015-04-28T13:36:57Z</time></trkpt><trkpt lat="34.9784620386" lon="32.8182114009"><ele>887.8</ele><time>2015-04-28T13:39:06Z</time></trkpt><trkpt lat="34.9781972542" lon="32.8181447648"><ele>891.1</ele><time>2015-04-28T13:39:29Z</time></trkpt><trkpt lat="34.9775258638" lon="32.8184180148"><ele>902.9</ele><time>2015-04-28T13:40:27Z</time></trkpt><trkpt lat="34.9748387095" lon="32.8176045511"><ele>925.4</ele><time>2015-04-28T13:44:19Z</time></trkpt><trkpt lat="34.9732899852" lon="32.8176181298"><ele>937.0</ele><time>2015-04-28T13:45:43Z</time></trkpt><trkpt lat="34.9730537832" lon="32.8174336441"><ele>934.2</ele><time>2015-04-28T13:45:55Z</time></trkpt><trkpt lat="34.9730439764" lon="32.8172071651"><ele>934.7</ele><time>2015-04-28T13:46:04Z</time></trkpt><trkpt lat="34.9733743910" lon="32.8168434743"><ele>940.5</ele><time>2015-04-28T14:02:21Z</time></trkpt><trkpt lat="34.9719346315" lon="32.8173686005"><ele>961.4</ele><time>2015-04-28T14:11:27Z</time></trkpt><trkpt lat="34.9714877084" lon="32.8169801831"><ele>977.7</ele><time>2015-04-28T14:13:54Z</time></trkpt><trkpt lat="34.9711496662" lon="32.8169086855"><ele>986.5</ele><time>2015-04-28T14:16:43Z</time></trkpt><trkpt lat="34.9705817923" lon="32.8163149953"><ele>1007.6</ele><time>2015-04-28T14:22:06Z</time></trkpt><trkpt lat="34.9710215069" lon="32.8164370358"><ele>1006.6</ele><time>2015-04-28T14:22:47Z</time></trkpt><trkpt lat="34.9711979460" lon="32.8163295798"><ele>1012.4</ele><time>2015-04-28T14:23:06Z</time></trkpt><trkpt lat="34.9710904062" lon="32.8164469264"><ele>1006.9</ele><time>2015-04-28T14:23:23Z</time></trkpt><trkpt lat="34.9701712467" lon="32.8162723314"><ele>1015.7</ele><time>2015-04-28T14:23:58Z</time></trkpt><trkpt lat="34.9700882658" lon="32.8165235370"><ele>1018.8</ele><time>2015-04-28T14:24:06Z</time></trkpt><trkpt lat="34.9703778606" lon="32.8168832883"><ele>1011.0</ele><time>2015-04-28T14:24:17Z</time></trkpt><trkpt lat="34.9702588376" lon="32.8172717895"><ele>1016.1</ele><time>2015-04-28T14:24:30Z</time></trkpt><trkpt lat="34.9710655119" lon="32.8177380748"><ele>1006.0</ele><time>2015-04-28T14:24:50Z</time></trkpt><trkpt lat="34.9711519293" lon="32.8183020093"><ele>1002.5</ele><time>2015-04-28T14:25:04Z</time></trkpt><trkpt lat="34.9710380193" lon="32.8193873819"><ele>999.0</ele><time>2015-04-28T14:26:07Z</time></trkpt><trkpt lat="34.9701772816" lon="32.8207396343"><ele>1016.4</ele><time>2015-04-28T14:36:51Z</time></trkpt><trkpt lat="34.9703364540" lon="32.8209725674"><ele>1016.7</ele><time>2015-04-28T14:37:04Z</time></trkpt><trkpt lat="34.9707235303" lon="32.8207366168"><ele>1010.4</ele><time>2015-04-28T14:37:26Z</time></trkpt><trkpt lat="34.9703372922" lon="32.8209562227"><ele>1016.4</ele><time>2015-04-28T14:38:15Z</time></trkpt><trkpt lat="34.9700584263" lon="32.8207097948"><ele>1019.0</ele><time>2015-04-28T14:43:23Z</time></trkpt><trkpt lat="34.9699972384" lon="32.8209612519"><ele>1022.6</ele><time>2015-04-28T14:44:51Z</time></trkpt><trkpt lat="34.9702098873" lon="32.8211083543"><ele>1022.9</ele><time>2015-04-28T14:45:18Z</time></trkpt><trkpt lat="34.9719432648" lon="32.8209133912"><ele>1038.5</ele><time>2015-04-28T14:47:53Z</time></trkpt><trkpt lat="34.9707543757" lon="32.8215097636"><ele>1047.7</ele><time>2015-04-28T14:51:10Z</time></trkpt><trkpt lat="34.9705412239" lon="32.8219708521"><ele>1063.5</ele><time>2015-04-28T14:54:36Z</time></trkpt><trkpt lat="34.9699702486" lon="32.8224069625"><ele>1076.6</ele><time>2015-04-28T14:56:18Z</time></trkpt><trkpt lat="34.9697928876" lon="32.8222130053"><ele>1070.3</ele><time>2015-04-28T14:56:42Z</time></trkpt><trkpt lat="34.9694938213" lon="32.8222281765"><ele>1076.9</ele><time>2015-04-28T15:00:01Z</time></trkpt><trkpt lat="34.9689303897" lon="32.8214660101"><ele>1077.5</ele><time>2015-04-28T15:00:45Z</time></trkpt><trkpt lat="34.9667386897" lon="32.8216463048"><ele>1109.1</ele><time>2015-04-28T15:06:15Z</time></trkpt><trkpt lat="34.9665625021" lon="32.8214166407"><ele>1109.8</ele><time>2015-04-28T15:06:49Z</time></trkpt><trkpt lat="34.9665875640" lon="32.8210134711"><ele>1105.9</ele><time>2015-04-28T15:07:07Z</time></trkpt><trkpt lat="34.9669526797" lon="32.8210530337"><ele>1100.1</ele><time>2015-04-28T15:07:34Z</time></trkpt><trkpt lat="34.9678004254" lon="32.8203480318"><ele>1102.5</ele><time>2015-04-28T15:08:24Z</time></trkpt><trkpt lat="34.9683818780" lon="32.8192447219"><ele>1106.3</ele><time>2015-04-28T15:09:11Z</time></trkpt><trkpt lat="34.9687589798" lon="32.8190970328"><ele>1106.6</ele><time>2015-04-28T15:09:31Z</time></trkpt><trkpt lat="34.9681315944" lon="32.8191487491"><ele>1116.1</ele><time>2015-04-28T15:10:21Z</time></trkpt><trkpt lat="34.9676945619" lon="32.8199622966"><ele>1120.0</ele><time>2015-04-28T15:11:25Z</time></trkpt><trkpt lat="34.9672227446" lon="32.8201943915"><ele>1121.1</ele><time>2015-04-28T15:11:55Z</time></trkpt><trkpt lat="34.9665185809" lon="32.8193868790"><ele>1125.6</ele><time>2015-04-28T15:12:50Z</time></trkpt><trkpt lat="34.9662575684" lon="32.8192891460"><ele>1129.6</ele><time>2015-04-28T15:13:02Z</time></trkpt><trkpt lat="34.9658748507" lon="32.8202880174"><ele>1146.4</ele><time>2015-04-28T15:13:38Z</time></trkpt><trkpt lat="34.9661090411" lon="32.8220777214"><ele>1141.2</ele><time>2015-04-28T15:14:16Z</time></trkpt><trkpt lat="34.9669773225" lon="32.8225668892"><ele>1141.6</ele><time>2015-04-28T15:14:38Z</time></trkpt><trkpt lat="34.9675405025" lon="32.8224946372"><ele>1142.4</ele><time>2015-04-28T15:15:05Z</time></trkpt><trkpt lat="34.9680956360" lon="32.8226580843"><ele>1142.3</ele><time>2015-04-28T15:15:34Z</time></trkpt><trkpt lat="34.9684360251" lon="32.8239802457"><ele>1157.6</ele><time>2015-04-28T15:16:46Z</time></trkpt><trkpt lat="34.9695762992" lon="32.8242898732"><ele>1156.1</ele><time>2015-04-28T15:17:57Z</time></trkpt><trkpt lat="34.9694251735" lon="32.8246169351"><ele>1153.4</ele><time>2015-04-28T15:19:00Z</time></trkpt><trkpt lat="34.9696666561" lon="32.8244887758"><ele>1151.4</ele><time>2015-04-28T15:19:21Z</time></trkpt><trkpt lat="34.9704343546" lon="32.8247764427"><ele>1147.5</ele><time>2015-04-28T15:19:54Z</time></trkpt><trkpt lat="34.9713416118" lon="32.8243355546"><ele>1146.0</ele><time>2015-04-28T15:20:08Z</time></trkpt><trkpt lat="34.9721477833" lon="32.8242657334"><ele>1137.0</ele><time>2015-04-28T15:20:22Z</time></trkpt><trkpt lat="34.9706143979" lon="32.8251881618"><ele>1126.5</ele><time>2015-04-28T15:20:55Z</time></trkpt><trkpt lat="34.9695861898" lon="32.8252387047"><ele>1125.1</ele><time>2015-04-28T15:21:12Z</time></trkpt><trkpt lat="34.9691159651" lon="32.8258198220"><ele>1129.3</ele><time>2015-04-28T15:21:22Z</time></trkpt><trkpt lat="34.9689203314" lon="32.8263550065"><ele>1122.3</ele><time>2015-04-28T15:21:30Z</time></trkpt><trkpt lat="34.9685269687" lon="32.8267373051"><ele>1120.3</ele><time>2015-04-28T15:21:45Z</time></trkpt><trkpt lat="34.9686154816" lon="32.8277951851"><ele>1108.3</ele><time>2015-04-28T15:22:06Z</time></trkpt><trkpt lat="34.9684931058" lon="32.8280403558"><ele>1104.8</ele><time>2015-04-28T15:22:16Z</time></trkpt><trkpt lat="34.9681077898" lon="32.8279349953"><ele>1105.7</ele><time>2015-04-28T15:22:39Z</time></trkpt><trkpt lat="34.9677586835" lon="32.8275847156"><ele>1108.5</ele><time>2015-04-28T15:23:05Z</time></trkpt></trkseg></trk></gpx>